sensor_id;sensor_type;location;lat;lon;timestamp;pressure;altitude;pressure_sealevel;temperature;humidity
77263;BME280;66373;52.334;4.806;2023-09-07T00:01:33;101915.78;;;26.84;55.28
77263;BME280;66373;52.334;4.806;2023-09-07T00:04:00;101933.50;;;27.02;55.42
77263;BME280;66373;52.334;4.806;2023-09-07T00:06:29;101934.47;;;27.01;55.48
77263;BME280;66373;52.334;4.806;2023-09-07T00:08:56;101933.59;;;27.01;55.46
77263;BME280;66373;52.334;4.806;2023-09-07T00:11:23;101919.72;;;26.96;55.48
77263;BME280;66373;52.334;4.806;2023-09-07T00:13:51;101922.25;;;26.99;55.53
77263;BME280;66373;52.334;4.806;2023-09-07T00:16:18;101923.16;;;26.98;55.66
77263;BME280;66373;52.334;4.806;2023-09-07T00:18:45;101932.00;;;26.97;55.65
77263;BME280;66373;52.334;4.806;2023-09-07T00:21:12;101923.22;;;26.96;55.44
77263;BME280;66373;52.334;4.806;2023-09-07T00:23:39;101921.50;;;26.95;55.19
77263;BME280;66373;52.334;4.806;2023-09-07T00:26:07;101872.53;;;26.66;55.13
77263;BME280;66373;52.334;4.806;2023-09-07T00:28:35;101918.03;;;26.93;55.33
77263;BME280;66373;52.334;4.806;2023-09-07T00:31:04;101909.38;;;26.90;55.19
77263;BME280;66373;52.334;4.806;2023-09-07T00:33:31;101926.81;;;26.94;55.66
77263;BME280;66373;52.334;4.806;2023-09-07T00:35:58;101919.81;;;26.93;55.81
77263;BME280;66373;52.334;4.806;2023-09-07T00:38:28;101922.47;;;26.93;55.36
77263;BME280;66373;52.334;4.806;2023-09-07T00:40:55;101919.81;;;26.93;55.20
77263;BME280;66373;52.334;4.806;2023-09-07T00:43:22;101867.38;;;26.63;55.32
77263;BME280;66373;52.334;4.806;2023-09-07T00:45:49;101918.97;;;26.92;55.03
77263;BME280;66373;52.334;4.806;2023-09-07T00:48:18;101917.31;;;26.90;55.45
77263;BME280;66373;52.334;4.806;2023-09-07T00:50:46;101912.88;;;26.90;55.40
77263;BME280;66373;52.334;4.806;2023-09-07T00:53:14;101918.22;;;26.89;55.34
77263;BME280;66373;52.334;4.806;2023-09-07T00:55:44;101917.38;;;26.88;55.40
77263;BME280;66373;52.334;4.806;2023-09-07T00:58:12;101906.88;;;26.87;55.63
77263;BME280;66373;52.334;4.806;2023-09-07T01:00:39;101901.66;;;26.85;55.70
77263;BME280;66373;52.334;4.806;2023-09-07T01:03:07;101873.38;;;26.67;55.17
77263;BME280;66373;52.334;4.806;2023-09-07T01:05:43;101867.56;;;26.59;55.57
77263;BME280;66373;52.334;4.806;2023-09-07T01:08:19;101909.63;;;26.84;55.44
77263;BME280;66373;52.334;4.806;2023-09-07T01:10:48;101900.00;;;26.83;55.65
77263;BME280;66373;52.334;4.806;2023-09-07T01:13:15;101890.81;;;26.71;55.50
77263;BME280;66373;52.334;4.806;2023-09-07T01:15:42;101909.75;;;26.81;55.24
77263;BME280;66373;52.334;4.806;2023-09-07T01:18:10;101914.19;;;26.80;55.82
77263;BME280;66373;52.334;4.806;2023-09-07T01:20:40;101897.88;;;26.70;55.54
77263;BME280;66373;52.334;4.806;2023-09-07T01:23:10;101903.03;;;26.74;55.27
77263;BME280;66373;52.334;4.806;2023-09-07T01:25:40;101901.91;;;26.79;55.18
77263;BME280;66373;52.334;4.806;2023-09-07T01:28:07;101904.59;;;26.78;55.43
77263;BME280;66373;52.334;4.806;2023-09-07T01:30:36;101785.22;;;26.07;55.36
77263;BME280;66373;52.334;4.806;2023-09-07T01:33:04;101890.63;;;26.76;55.65
77263;BME280;66373;52.334;4.806;2023-09-07T01:35:32;101878.84;;;26.62;55.80
77263;BME280;66373;52.334;4.806;2023-09-07T01:38:00;101847.94;;;26.44;55.67
77263;BME280;66373;52.334;4.806;2023-09-07T01:40:29;101894.19;;;26.75;55.70
77263;BME280;66373;52.334;4.806;2023-09-07T01:42:56;101900.38;;;26.74;55.59
77263;BME280;66373;52.334;4.806;2023-09-07T01:45:23;101905.72;;;26.72;55.76
77263;BME280;66373;52.334;4.806;2023-09-07T01:47:50;101910.16;;;26.72;55.85
77263;BME280;66373;52.334;4.806;2023-09-07T01:50:17;101904.88;;;26.72;55.69
77263;BME280;66373;52.334;4.806;2023-09-07T01:52:46;101784.59;;;26.00;55.42
77263;BME280;66373;52.334;4.806;2023-09-07T01:55:15;101902.34;;;26.68;55.49
77263;BME280;66373;52.334;4.806;2023-09-07T01:57:43;101900.63;;;26.67;55.88
77263;BME280;66373;52.334;4.806;2023-09-07T02:00:12;101905.00;;;26.68;55.90
77263;BME280;66373;52.334;4.806;2023-09-07T02:02:39;101871.44;;;26.50;55.96
77263;BME280;66373;52.334;4.806;2023-09-07T02:05:07;101894.56;;;26.65;55.68
77263;BME280;66373;52.334;4.806;2023-09-07T02:07:35;101903.41;;;26.64;55.95
77263;BME280;66373;52.334;4.806;2023-09-07T02:10:02;101899.91;;;26.64;55.77
77263;BME280;66373;52.334;4.806;2023-09-07T02:12:30;101889.53;;;26.59;55.90
77263;BME280;66373;52.334;4.806;2023-09-07T02:15:00;101907.81;;;26.64;55.87
77263;BME280;66373;52.334;4.806;2023-09-07T02:17:28;101903.50;;;26.61;55.94
77263;BME280;66373;52.334;4.806;2023-09-07T02:19:56;101903.50;;;26.61;55.41
77263;BME280;66373;52.334;4.806;2023-09-07T02:22:25;101891.47;;;26.54;55.81
77263;BME280;66373;52.334;4.806;2023-09-07T02:24:52;101901.78;;;26.60;55.50
77263;BME280;66373;52.334;4.806;2023-09-07T02:27:19;101784.22;;;25.88;55.22
77263;BME280;66373;52.334;4.806;2023-09-07T02:29:46;101905.34;;;26.59;55.25
77263;BME280;66373;52.334;4.806;2023-09-07T02:32:15;101901.00;;;26.58;55.39
77263;BME280;66373;52.334;4.806;2023-09-07T02:34:43;101908.06;;;26.58;54.99
77263;BME280;66373;52.334;4.806;2023-09-07T02:37:10;101907.19;;;26.57;55.33
77263;BME280;66373;52.334;4.806;2023-09-07T02:39:37;101903.75;;;26.55;55.05
77263;BME280;66373;52.334;4.806;2023-09-07T02:42:04;101868.66;;;26.31;55.23
77263;BME280;66373;52.334;4.806;2023-09-07T02:44:31;101884.00;;;26.44;54.96
77263;BME280;66373;52.334;4.806;2023-09-07T02:46:58;101906.44;;;26.54;54.94
77263;BME280;66373;52.334;4.806;2023-09-07T02:49:27;101913.50;;;26.53;55.20
77263;BME280;66373;52.334;4.806;2023-09-07T02:51:54;101895.31;;;26.47;54.91
77263;BME280;66373;52.334;4.806;2023-09-07T02:54:23;101886.47;;;26.48;55.26
77263;BME280;66373;52.334;4.806;2023-09-07T02:56:50;101902.16;;;26.51;55.21
77263;BME280;66373;52.334;4.806;2023-09-07T02:59:18;101904.03;;;26.49;55.27
77263;BME280;66373;52.334;4.806;2023-09-07T03:01:46;101901.38;;;26.49;55.47
77263;BME280;66373;52.334;4.806;2023-09-07T03:04:13;101881.78;;;26.33;54.98
77263;BME280;66373;52.334;4.806;2023-09-07T03:06:42;101893.72;;;26.43;55.14
77263;BME280;66373;52.334;4.806;2023-09-07T03:09:09;101913.84;;;26.46;55.03
77263;BME280;66373;52.334;4.806;2023-09-07T03:11:37;101908.56;;;26.46;54.97
77263;BME280;66373;52.334;4.806;2023-09-07T03:14:04;101910.34;;;26.45;55.53
77263;BME280;66373;52.334;4.806;2023-09-07T03:16:31;101910.34;;;26.45;55.55
77263;BME280;66373;52.334;4.806;2023-09-07T03:18:58;101910.41;;;26.44;55.42
77263;BME280;66373;52.334;4.806;2023-09-07T03:21:25;101907.81;;;26.42;54.92
77263;BME280;66373;52.334;4.806;2023-09-07T03:23:57;101906.97;;;26.42;55.04
77263;BME280;66373;52.334;4.806;2023-09-07T03:26:24;101902.53;;;26.42;54.99
77263;BME280;66373;52.334;4.806;2023-09-07T03:28:52;101874.34;;;26.21;55.32
77263;BME280;66373;52.334;4.806;2023-09-07T03:31:19;101852.78;;;26.10;54.92
77263;BME280;66373;52.334;4.806;2023-09-07T03:33:46;101873.44;;;26.22;55.10
77263;BME280;66373;52.334;4.806;2023-09-07T03:36:13;101866.53;;;26.18;55.27
77263;BME280;66373;52.334;4.806;2023-09-07T03:38:41;101893.94;;;26.37;54.97
77263;BME280;66373;52.334;4.806;2023-09-07T03:41:11;101897.50;;;26.36;54.96
77263;BME280;66373;52.334;4.806;2023-09-07T03:43:38;101904.56;;;26.35;55.13
77263;BME280;66373;52.334;4.806;2023-09-07T03:46:05;101873.28;;;26.25;55.34
77263;BME280;66373;52.334;4.806;2023-09-07T03:48:33;101784.22;;;25.66;54.78
77263;BME280;66373;52.334;4.806;2023-09-07T03:51:00;101887.06;;;26.33;54.66
77263;BME280;66373;52.334;4.806;2023-09-07T03:53:27;101888.84;;;26.32;55.38
77263;BME280;66373;52.334;4.806;2023-09-07T03:55:54;101884.50;;;26.31;55.34
77263;BME280;66373;52.334;4.806;2023-09-07T03:58:23;101889.75;;;26.31;54.82
77263;BME280;66373;52.334;4.806;2023-09-07T04:00:50;101855.38;;;26.11;54.94
77263;BME280;66373;52.334;4.806;2023-09-07T04:03:17;101881.00;;;26.29;54.96
77263;BME280;66373;52.334;4.806;2023-09-07T04:05:44;101892.47;;;26.30;55.53
77263;BME280;66373;52.334;4.806;2023-09-07T04:08:11;101882.31;;;26.19;55.55
77263;BME280;66373;52.334;4.806;2023-09-07T04:10:38;101863.34;;;26.10;55.33
77263;BME280;66373;52.334;4.806;2023-09-07T04:13:05;101892.69;;;26.24;55.23
77263;BME280;66373;52.334;4.806;2023-09-07T04:15:41;101892.00;;;26.19;55.11
77263;BME280;66373;52.334;4.806;2023-09-07T04:18:10;101902.38;;;26.23;55.33
77263;BME280;66373;52.334;4.806;2023-09-07T04:20:38;101905.88;;;26.24;54.83
77263;BME280;66373;52.334;4.806;2023-09-07T04:23:05;101907.66;;;26.23;54.76
77263;BME280;66373;52.334;4.806;2023-09-07T04:25:32;101909.44;;;26.23;55.18
77263;BME280;66373;52.334;4.806;2023-09-07T04:27:59;101905.06;;;26.22;55.15
77263;BME280;66373;52.334;4.806;2023-09-07T04:30:27;101838.91;;;25.83;54.79
77263;BME280;66373;52.334;4.806;2023-09-07T04:32:56;101903.34;;;26.21;55.25
77263;BME280;66373;52.334;4.806;2023-09-07T04:35:27;101823.50;;;25.72;55.30
77263;BME280;66373;52.334;4.806;2023-09-07T04:37:55;101895.69;;;26.15;55.16
77263;BME280;66373;52.334;4.806;2023-09-07T04:40:22;101903.47;;;26.18;55.27
77263;BME280;66373;52.334;4.806;2023-09-07T04:42:49;101858.78;;;25.91;54.61
77263;BME280;66373;52.334;4.806;2023-09-07T04:45:16;101903.59;;;26.15;54.77
77263;BME280;66373;52.334;4.806;2023-09-07T04:47:44;101891.78;;;26.01;55.17
77263;BME280;66373;52.334;4.806;2023-09-07T04:50:13;101905.41;;;26.13;55.27
77263;BME280;66373;52.334;4.806;2023-09-07T04:52:40;101906.34;;;26.12;55.12
77263;BME280;66373;52.334;4.806;2023-09-07T04:55:08;101908.97;;;26.12;54.83
77263;BME280;66373;52.334;4.806;2023-09-07T04:57:37;101886.50;;;26.01;54.75
77263;BME280;66373;52.334;4.806;2023-09-07T05:00:08;101911.66;;;26.10;54.80
77263;BME280;66373;52.334;4.806;2023-09-07T05:02:35;101911.66;;;26.10;54.67
77263;BME280;66373;52.334;4.806;2023-09-07T05:05:08;101913.50;;;26.08;54.85
77263;BME280;66373;52.334;4.806;2023-09-07T05:07:36;101921.47;;;26.07;54.89
77263;BME280;66373;52.334;4.806;2023-09-07T05:10:04;101919.75;;;26.06;54.34
77263;BME280;66373;52.334;4.806;2023-09-07T05:12:32;101922.38;;;26.06;54.94
77263;BME280;66373;52.334;4.806;2023-09-07T05:14:59;101928.56;;;26.04;55.02
77263;BME280;66373;52.334;4.806;2023-09-07T05:17:28;101917.53;;;25.95;54.68
77263;BME280;66373;52.334;4.806;2023-09-07T05:19:55;101929.53;;;26.02;55.11
77263;BME280;66373;52.334;4.806;2023-09-07T05:22:22;101914.84;;;25.96;55.14
77263;BME280;66373;52.334;4.806;2023-09-07T05:24:53;101927.09;;;25.97;55.46
77263;BME280;66373;52.334;4.806;2023-09-07T05:27:20;101940.16;;;26.00;55.46
77263;BME280;66373;52.334;4.806;2023-09-07T05:29:47;101937.50;;;26.00;55.39
77263;BME280;66373;52.334;4.806;2023-09-07T05:32:14;101927.22;;;25.94;55.48
77263;BME280;66373;52.334;4.806;2023-09-07T05:34:41;101925.59;;;25.90;55.15
77263;BME280;66373;52.334;4.806;2023-09-07T05:37:08;101942.00;;;25.98;55.48
77263;BME280;66373;52.334;4.806;2023-09-07T05:39:36;101943.78;;;25.98;55.39
77263;BME280;66373;52.334;4.806;2023-09-07T05:42:04;101948.19;;;25.97;55.49
77263;BME280;66373;52.334;4.806;2023-09-07T05:44:31;101901.75;;;25.70;55.02
77263;BME280;66373;52.334;4.806;2023-09-07T05:46:59;101942.13;;;25.95;55.16
77263;BME280;66373;52.334;4.806;2023-09-07T05:49:28;101934.22;;;25.95;54.91
77263;BME280;66373;52.334;4.806;2023-09-07T05:51:55;101943.03;;;25.94;55.23
77263;BME280;66373;52.334;4.806;2023-09-07T05:54:23;101939.59;;;25.92;55.44
77263;BME280;66373;52.334;4.806;2023-09-07T05:56:50;101900.16;;;25.66;55.41
77263;BME280;66373;52.334;4.806;2023-09-07T05:59:18;101929.47;;;25.80;55.56
77263;BME280;66373;52.334;4.806;2023-09-07T06:01:46;101932.72;;;25.88;55.37
77263;BME280;66373;52.334;4.806;2023-09-07T06:04:13;101909.84;;;25.65;54.89
77263;BME280;66373;52.334;4.806;2023-09-07T06:06:40;101943.25;;;25.88;55.23
77263;BME280;66373;52.334;4.806;2023-09-07T06:09:08;101952.72;;;25.94;55.48
77263;BME280;66373;52.334;4.806;2023-09-07T06:11:35;101948.31;;;25.94;55.34
77263;BME280;66373;52.334;4.806;2023-09-07T06:14:04;101943.38;;;25.85;55.30
77263;BME280;66373;52.334;4.806;2023-09-07T06:16:33;101952.28;;;25.81;55.36
77263;BME280;66373;52.334;4.806;2023-09-07T06:19:00;101952.13;;;25.86;55.01
77263;BME280;66373;52.334;4.806;2023-09-07T06:21:28;101972.94;;;25.93;54.81
77263;BME280;66373;52.334;4.806;2023-09-07T06:23:55;101959.94;;;25.89;54.87
77263;BME280;66373;52.334;4.806;2023-09-07T06:26:22;101942.78;;;25.77;55.41
77263;BME280;66373;52.334;4.806;2023-09-07T06:28:49;101961.00;;;25.83;55.29
77263;BME280;66373;52.334;4.806;2023-09-07T06:31:17;101974.69;;;25.94;54.90
77263;BME280;66373;52.334;4.806;2023-09-07T06:33:45;101974.69;;;25.94;55.51
77263;BME280;66373;52.334;4.806;2023-09-07T06:36:13;101923.06;;;25.64;55.47
77263;BME280;66373;52.334;4.806;2023-09-07T06:38:40;101979.09;;;25.94;55.17
77263;BME280;66373;52.334;4.806;2023-09-07T06:41:08;101967.13;;;25.84;55.15
77263;BME280;66373;52.334;4.806;2023-09-07T06:43:36;101974.72;;;25.93;54.65
77263;BME280;66373;52.334;4.806;2023-09-07T06:46:06;101973.88;;;25.92;55.41
77263;BME280;66373;52.334;4.806;2023-09-07T06:48:34;101958.53;;;25.79;54.84
77263;BME280;66373;52.334;4.806;2023-09-07T06:51:03;101970.59;;;25.86;54.68
77263;BME280;66373;52.334;4.806;2023-09-07T06:53:31;101980.06;;;25.91;55.31
77263;BME280;66373;52.334;4.806;2023-09-07T06:55:58;101968.66;;;25.91;55.08
77263;BME280;66373;52.334;4.806;2023-09-07T06:58:26;101943.59;;;25.79;55.30
77263;BME280;66373;52.334;4.806;2023-09-07T07:00:57;101969.44;;;25.93;54.94
77263;BME280;66373;52.334;4.806;2023-09-07T07:03:27;101893.78;;;25.47;54.89
77263;BME280;66373;52.334;4.806;2023-09-07T07:05:55;101972.09;;;25.93;54.96
77263;BME280;66373;52.334;4.806;2023-09-07T07:08:23;101971.22;;;25.92;54.77
77263;BME280;66373;52.334;4.806;2023-09-07T07:10:50;101969.41;;;25.94;55.22
77263;BME280;66373;52.334;4.806;2023-09-07T07:13:19;101982.63;;;25.93;54.76
77263;BME280;66373;52.334;4.806;2023-09-07T07:15:46;101969.41;;;25.94;55.33
77263;BME280;66373;52.334;4.806;2023-09-07T07:18:13;101969.50;;;25.91;55.37
77263;BME280;66373;52.334;4.806;2023-09-07T07:20:41;101944.84;;;25.69;55.25
77263;BME280;66373;52.334;4.806;2023-09-07T07:23:10;101972.94;;;25.93;55.47
77263;BME280;66373;52.334;4.806;2023-09-07T07:25:38;101971.97;;;25.96;55.35
77263;BME280;66373;52.334;4.806;2023-09-07T07:28:06;101969.41;;;25.94;54.83
77263;BME280;66373;52.334;4.806;2023-09-07T07:30:33;101965.00;;;25.95;55.26
77263;BME280;66373;52.334;4.806;2023-09-07T07:33:02;101964.94;;;25.96;54.98
77263;BME280;66373;52.334;4.806;2023-09-07T07:35:31;101976.16;;;26.01;55.04
77263;BME280;66373;52.334;4.806;2023-09-07T07:37:58;101983.09;;;26.04;54.71
77263;BME280;66373;52.334;4.806;2023-09-07T07:40:25;101972.59;;;26.02;54.91
77263;BME280;66373;52.334;4.806;2023-09-07T07:42:54;101952.78;;;25.92;55.59
77263;BME280;66373;52.334;4.806;2023-09-07T07:45:21;101974.31;;;26.03;55.13
77263;BME280;66373;52.334;4.806;2023-09-07T07:47:50;101957.75;;;26.00;55.22
77263;BME280;66373;52.334;4.806;2023-09-07T07:50:18;101968.81;;;26.10;54.91
77263;BME280;66373;52.334;4.806;2023-09-07T07:52:46;101968.78;;;26.11;55.11
77263;BME280;66373;52.334;4.806;2023-09-07T07:55:13;101956.78;;;26.02;54.60
77263;BME280;66373;52.334;4.806;2023-09-07T07:57:41;101966.47;;;26.02;54.76
77263;BME280;66373;52.334;4.806;2023-09-07T08:00:13;101964.78;;;25.99;54.97
77263;BME280;66373;52.334;4.806;2023-09-07T08:02:46;101950.91;;;25.96;55.13
77263;BME280;66373;52.334;4.806;2023-09-07T08:05:14;101895.84;;;25.63;54.57
77263;BME280;66373;52.334;4.806;2023-09-07T08:07:42;101844.13;;;25.36;54.82
77263;BME280;66373;52.334;4.806;2023-09-07T08:10:09;101946.00;;;26.09;53.75
77263;BME280;66373;52.334;4.806;2023-09-07T08:12:36;101913.34;;;25.89;53.27
77263;BME280;66373;52.334;4.806;2023-09-07T08:15:05;101952.88;;;26.13;53.10
77263;BME280;66373;52.334;4.806;2023-09-07T08:17:34;101944.06;;;26.14;53.43
77263;BME280;66373;52.334;4.806;2023-09-07T08:20:01;101897.84;;;25.80;53.53
77263;BME280;66373;52.334;4.806;2023-09-07T08:22:28;101944.16;;;26.11;53.60
77263;BME280;66373;52.334;4.806;2023-09-07T08:24:56;101951.06;;;26.15;53.50
77263;BME280;66373;52.334;4.806;2023-09-07T08:27:24;101909.56;;;25.96;52.74
77263;BME280;66373;52.334;4.806;2023-09-07T08:29:54;101876.78;;;25.80;53.29
77263;BME280;66373;52.334;4.806;2023-09-07T08:32:21;101933.28;;;26.20;52.86
77263;BME280;66373;52.334;4.806;2023-09-07T08:34:49;101928.81;;;26.22;52.69
77263;BME280;66373;52.334;4.806;2023-09-07T08:37:22;101835.19;;;25.65;51.63
77263;BME280;66373;52.334;4.806;2023-09-07T08:39:50;101922.34;;;26.29;52.15
77263;BME280;66373;52.334;4.806;2023-09-07T08:42:17;101919.72;;;26.29;51.65
77263;BME280;66373;52.334;4.806;2023-09-07T08:44:46;101927.75;;;26.26;52.15
77263;BME280;66373;52.334;4.806;2023-09-07T08:47:14;101917.34;;;26.23;52.66
77263;BME280;66373;52.334;4.806;2023-09-07T08:49:44;101920.75;;;26.25;52.35
77263;BME280;66373;52.334;4.806;2023-09-07T08:52:15;101860.38;;;25.95;52.43
77263;BME280;66373;52.334;4.806;2023-09-07T08:54:43;101922.28;;;26.32;52.26
77263;BME280;66373;52.334;4.806;2023-09-07T08:57:11;101918.72;;;26.33;51.86
77263;BME280;66373;52.334;4.806;2023-09-07T08:59:38;101907.38;;;26.31;51.77
77263;BME280;66373;52.334;4.806;2023-09-07T09:02:08;101867.94;;;26.04;51.79
77263;BME280;66373;52.334;4.806;2023-09-07T09:04:36;101901.97;;;26.34;51.72
77263;BME280;66373;52.334;4.806;2023-09-07T09:07:04;101887.97;;;26.32;51.27
77263;BME280;66373;52.334;4.806;2023-09-07T09:09:33;101878.34;;;26.31;51.53
77263;BME280;66373;52.334;4.806;2023-09-07T09:12:07;101911.03;;;26.50;51.28
77263;BME280;66373;52.334;4.806;2023-09-07T09:14:34;101919.75;;;26.51;51.33
77263;BME280;66373;52.334;4.806;2023-09-07T09:17:01;101911.03;;;26.50;51.91
77263;BME280;66373;52.334;4.806;2023-09-07T09:19:32;101907.44;;;26.51;51.19
77263;BME280;66373;52.334;4.806;2023-09-07T09:21:59;101903.41;;;26.43;51.45
77263;BME280;66373;52.334;4.806;2023-09-07T09:24:26;101914.59;;;26.49;51.39
77263;BME280;66373;52.334;4.806;2023-09-07T09:26:55;101887.56;;;26.43;51.71
77263;BME280;66373;52.334;4.806;2023-09-07T09:29:22;101908.91;;;26.58;51.46
77263;BME280;66373;52.334;4.806;2023-09-07T09:31:51;101873.69;;;26.38;51.52
77263;BME280;66373;52.334;4.806;2023-09-07T09:34:19;101902.03;;;26.54;51.13
77263;BME280;66373;52.334;4.806;2023-09-07T09:36:46;101896.63;;;26.57;51.62
77263;BME280;66373;52.334;4.806;2023-09-07T09:39:22;101911.06;;;26.70;50.88
77263;BME280;66373;52.334;4.806;2023-09-07T09:41:50;101900.63;;;26.67;51.20
77263;BME280;66373;52.334;4.806;2023-09-07T09:44:20;101904.75;;;26.75;50.60
77263;BME280;66373;52.334;4.806;2023-09-07T09:46:52;101898.72;;;26.71;50.90
77263;BME280;66373;52.334;4.806;2023-09-07T09:49:21;101901.19;;;26.76;50.61
77263;BME280;66373;52.334;4.806;2023-09-07T09:51:49;101908.16;;;26.77;50.69
77263;BME280;66373;52.334;4.806;2023-09-07T09:54:17;101916.63;;;26.85;50.98
77263;BME280;66373;52.334;4.806;2023-09-07T09:56:45;101857.44;;;26.48;50.67
77263;BME280;66373;52.334;4.806;2023-09-07T09:59:13;101911.22;;;26.88;51.09
77263;BME280;66373;52.334;4.806;2023-09-07T10:01:44;101882.84;;;26.73;51.28
77263;BME280;66373;52.334;4.806;2023-09-07T10:04:14;101861.72;;;26.73;50.96
77263;BME280;66373;52.334;4.806;2023-09-07T10:06:53;101870.28;;;26.78;50.72
77263;BME280;66373;52.334;4.806;2023-09-07T10:09:20;101894.06;;;26.99;50.22
77263;BME280;66373;52.334;4.806;2023-09-07T10:11:53;101889.97;;;26.91;50.38
77263;BME280;66373;52.334;4.806;2023-09-07T10:14:20;101828.88;;;26.58;50.63
77263;BME280;66373;52.334;4.806;2023-09-07T10:16:50;101900.13;;;27.01;50.71
77263;BME280;66373;52.334;4.806;2023-09-07T10:19:20;101908.63;;;27.08;50.26
77263;BME280;66373;52.334;4.806;2023-09-07T10:21:48;101882.84;;;26.93;49.95
77263;BME280;66373;52.334;4.806;2023-09-07T10:24:25;101911.16;;;27.11;49.90
77263;BME280;66373;52.334;4.806;2023-09-07T10:26:57;101901.38;;;27.13;50.16
77263;BME280;66373;52.334;4.806;2023-09-07T10:29:25;101906.41;;;27.19;49.62
77263;BME280;66373;52.334;4.806;2023-09-07T10:31:55;101910.78;;;27.20;49.11
77263;BME280;66373;52.334;4.806;2023-09-07T10:34:34;101863.34;;;26.97;48.92
77263;BME280;66373;52.334;4.806;2023-09-07T10:37:04;101896.75;;;27.18;48.74
77263;BME280;66373;52.334;4.806;2023-09-07T10:39:31;101848.72;;;26.88;49.12
77263;BME280;66373;52.334;4.806;2023-09-07T10:41:59;101902.59;;;27.26;49.07
77263;BME280;66373;52.334;4.806;2023-09-07T10:44:26;101886.94;;;27.22;48.60
77263;BME280;66373;52.334;4.806;2023-09-07T10:46:55;101897.00;;;27.32;48.12
77263;BME280;66373;52.334;4.806;2023-09-07T10:49:24;101886.50;;;27.31;48.76
77263;BME280;66373;52.334;4.806;2023-09-07T10:51:52;101886.56;;;27.29;48.89
77263;BME280;66373;52.334;4.806;2023-09-07T10:54:23;101894.25;;;27.35;48.69
77263;BME280;66373;52.334;4.806;2023-09-07T10:56:51;101814.97;;;26.96;48.18
77263;BME280;66373;52.334;4.806;2023-09-07T10:59:18;101889.88;;;27.34;48.67
77263;BME280;66373;52.334;4.806;2023-09-07T11:01:45;101895.03;;;27.37;48.73
77263;BME280;66373;52.334;4.806;2023-09-07T11:04:15;101900.97;;;27.43;48.42
77263;BME280;66373;52.334;4.806;2023-09-07T11:06:44;101897.53;;;27.41;48.08
77263;BME280;66373;52.334;4.806;2023-09-07T11:09:12;101875.88;;;27.32;48.87
77263;BME280;66373;52.334;4.806;2023-09-07T11:11:46;101848.22;;;27.21;48.42
77263;BME280;66373;52.334;4.806;2023-09-07T11:14:13;101873.91;;;27.37;49.00
77263;BME280;66373;52.334;4.806;2023-09-07T11:16:40;101854.75;;;27.32;49.10
77263;BME280;66373;52.334;4.806;2023-09-07T11:19:09;101864.66;;;27.48;48.73
77263;BME280;66373;52.334;4.806;2023-09-07T11:21:37;101836.66;;;27.23;49.13
77263;BME280;66373;52.334;4.806;2023-09-07T11:24:05;101875.00;;;27.52;48.92
77263;BME280;66373;52.334;4.806;2023-09-07T11:26:42;101845.03;;;27.33;49.68
77263;BME280;66373;52.334;4.806;2023-09-07T11:29:13;101850.84;;;27.41;49.82
77263;BME280;66373;52.334;4.806;2023-09-07T11:31:42;101823.34;;;27.26;49.80
77263;BME280;66373;52.334;4.806;2023-09-07T11:34:10;101810.13;;;27.26;48.82
77263;BME280;66373;52.334;4.806;2023-09-07T11:36:39;101779.94;;;27.12;49.19
77263;BME280;66373;52.334;4.806;2023-09-07T11:39:06;101844.69;;;27.61;48.69
77263;BME280;66373;52.334;4.806;2023-09-07T11:41:38;101845.53;;;27.61;48.81
77263;BME280;66373;52.334;4.806;2023-09-07T11:44:06;101814.63;;;27.43;48.77
77263;BME280;66373;52.334;4.806;2023-09-07T11:46:34;101844.53;;;27.64;49.08
77263;BME280;66373;52.334;4.806;2023-09-07T11:49:01;101852.84;;;27.75;49.08
77263;BME280;66373;52.334;4.806;2023-09-07T11:51:30;101851.28;;;27.71;49.04
77263;BME280;66373;52.334;4.806;2023-09-07T11:53:58;101844.13;;;27.73;48.84
77263;BME280;66373;52.334;4.806;2023-09-07T11:56:26;101831.97;;;27.69;48.39
77263;BME280;66373;52.334;4.806;2023-09-07T11:58:53;101848.84;;;27.85;48.37
77263;BME280;66373;52.334;4.806;2023-09-07T12:01:20;101845.34;;;27.85;47.95
77263;BME280;66373;52.334;4.806;2023-09-07T12:03:47;101846.19;;;27.85;49.08
77263;BME280;66373;52.334;4.806;2023-09-07T12:06:15;101836.53;;;27.84;49.10
77263;BME280;66373;52.334;4.806;2023-09-07T12:08:59;101835.53;;;27.87;48.49
77263;BME280;66373;52.334;4.806;2023-09-07T12:11:26;101832.97;;;27.85;48.64
77263;BME280;66373;52.334;4.806;2023-09-07T12:13:53;101817.56;;;27.76;48.21
77263;BME280;66373;52.334;4.806;2023-09-07T12:16:20;101829.25;;;27.89;48.12
77263;BME280;66373;52.334;4.806;2023-09-07T12:18:47;101785.19;;;27.71;47.70
77263;BME280;66373;52.334;4.806;2023-09-07T12:21:14;101725.22;;;27.34;48.00
77263;BME280;66373;52.334;4.806;2023-09-07T12:23:42;101762.66;;;27.62;48.32
77263;BME280;66373;52.334;4.806;2023-09-07T12:26:10;101798.59;;;27.85;48.11
77263;BME280;66373;52.334;4.806;2023-09-07T12:28:37;101812.50;;;28.08;47.49
77263;BME280;66373;52.334;4.806;2023-09-07T12:31:04;101810.09;;;28.03;48.38
77263;BME280;66373;52.334;4.806;2023-09-07T12:33:31;101808.38;;;28.02;47.80
77263;BME280;66373;52.334;4.806;2023-09-07T12:35:58;101776.66;;;27.83;48.59
77263;BME280;66373;52.334;4.806;2023-09-07T12:38:25;101743.16;;;27.65;47.80
77263;BME280;66373;52.334;4.806;2023-09-07T12:40:54;101783.09;;;27.96;46.82
77263;BME280;66373;52.334;4.806;2023-09-07T12:43:23;101788.66;;;27.90;48.75
77263;BME280;66373;52.334;4.806;2023-09-07T12:45:50;101800.31;;;28.05;48.40
77263;BME280;66373;52.334;4.806;2023-09-07T12:48:19;101800.19;;;28.07;48.00
77263;BME280;66373;52.334;4.806;2023-09-07T12:50:46;101772.00;;;27.88;48.21
77263;BME280;66373;52.334;4.806;2023-09-07T12:53:13;101692.66;;;27.33;47.39
77263;BME280;66373;52.334;4.806;2023-09-07T12:55:41;101790.22;;;27.94;48.24